createdAt,value
2022-09-16T00:00:16.963Z,95.5
2022-09-16T00:01:26.150Z,96
2022-09-16T00:02:34.337Z,95.5
2022-09-16T00:03:43.495Z,96
2022-09-16T00:04:51.690Z,95
2022-09-16T00:05:59.892Z,95
2022-09-16T00:07:09.057Z,94.5
2022-09-16T00:08:18.226Z,94.5
2022-09-16T00:09:27.406Z,94.5
2022-09-16T00:10:36.579Z,95.5
2022-09-16T00:11:44.765Z,97.5
2022-09-16T00:12:53.940Z,95
2022-09-16T00:14:02.132Z,94.5
2022-09-16T00:15:11.304Z,96
2022-09-16T00:16:20.475Z,94.5
2022-09-16T00:17:29.649Z,94
2022-09-16T00:18:38.817Z,95
2022-09-16T00:19:47.994Z,96
2022-09-16T00:20:57.171Z,95.5
2022-09-16T00:22:06.341Z,96
2022-09-16T00:23:15.513Z,98
2022-09-16T00:24:24.687Z,97.5
2022-09-16T00:25:33.857Z,96
2022-09-16T00:26:43.039Z,96
2022-09-16T00:27:52.207Z,96
2022-09-16T00:29:00.401Z,96
2022-09-16T00:30:09.568Z,96.5
2022-09-16T00:31:18.733Z,96.5
2022-09-16T00:32:27.964Z,97.5
2022-09-16T00:33:37.085Z,97
2022-09-16T00:34:46.255Z,97
2022-09-16T00:35:54.471Z,97.5
2022-09-16T00:37:02.643Z,97
2022-09-16T00:38:11.813Z,96
2022-09-16T00:39:20.998Z,96
2022-09-16T00:40:30.168Z,96
2022-09-16T00:41:38.359Z,96
2022-09-16T00:42:47.530Z,98
2022-09-16T00:43:56.740Z,96.5
2022-09-16T00:45:04.895Z,96
2022-09-16T00:46:14.061Z,97.5
2022-09-16T00:47:23.236Z,96.5
2022-09-16T00:48:32.411Z,96.5
2022-09-16T00:49:41.588Z,97
2022-09-16T00:50:50.758Z,97
2022-09-16T00:51:59.929Z,98
2022-09-16T00:53:09.130Z,96.5
2022-09-16T00:54:18.280Z,98
2022-09-16T00:55:27.447Z,98.5
2022-09-16T00:56:36.639Z,97.5
2022-09-16T00:57:45.796Z,97
2022-09-16T00:58:54.998Z,97
2022-09-16T01:00:03.165Z,98
2022-09-16T01:01:12.351Z,96.5
2022-09-16T01:02:21.499Z,96.5
2022-09-16T01:03:30.683Z,97
2022-09-16T01:04:39.842Z,99
2022-09-16T01:06:58.191Z,96
2022-09-16T01:08:07.368Z,96.5
2022-09-16T01:09:16.544Z,97
2022-09-16T01:10:25.716Z,97
2022-09-16T01:11:34.883Z,96.5
2022-09-16T01:12:44.060Z,96.5
2022-09-16T01:13:53.253Z,98
2022-09-16T01:15:01.412Z,98.5
2022-09-16T01:16:10.593Z,99
2022-09-16T01:17:19.766Z,97
2022-09-16T01:18:28.946Z,98
2022-09-16T01:19:38.115Z,98
2022-09-16T01:20:47.285Z,97
2022-09-16T01:21:56.474Z,97.5
2022-09-16T01:23:05.648Z,98.5
2022-09-16T01:24:14.799Z,97.5
2022-09-16T01:25:23.973Z,97
2022-09-16T01:26:33.145Z,97.5
2022-09-16T01:27:42.325Z,98.5
2022-09-16T01:28:51.499Z,98.5
2022-09-16T01:29:59.691Z,97.5
2022-09-16T01:32:18.024Z,97.5
2022-09-16T01:33:27.196Z,98
2022-09-16T01:34:36.377Z,97
2022-09-16T01:35:45.551Z,97.5
2022-09-16T01:36:54.721Z,98
2022-09-16T01:38:03.888Z,97.5
2022-09-16T01:39:13.070Z,98.5
2022-09-16T01:40:22.244Z,97.5
2022-09-16T01:41:31.413Z,97
2022-09-16T01:42:40.586Z,97
2022-09-16T01:43:49.761Z,97.5
2022-09-16T01:44:57.945Z,98.5
2022-09-16T01:46:07.115Z,97
2022-09-16T01:47:16.286Z,97
2022-09-16T01:48:25.469Z,96.5
2022-09-16T01:49:34.657Z,97.5
2022-09-16T01:50:43.840Z,98
2022-09-16T01:51:52.988Z,97
2022-09-16T01:53:02.155Z,97.5
2022-09-16T01:54:11.331Z,98.5
2022-09-16T01:56:29.682Z,98.5
2022-09-16T01:57:38.850Z,99.5
2022-09-16T01:58:48.025Z,96.5
2022-09-16T01:59:56.213Z,97
2022-09-16T02:01:05.381Z,98
2022-09-16T02:02:14.555Z,98
2022-09-16T02:03:23.723Z,97.5
2022-09-16T02:04:32.904Z,98.5
2022-09-16T02:05:42.070Z,98.5
2022-09-16T02:06:50.264Z,98
2022-09-16T02:07:59.449Z,99
2022-09-16T02:09:08.613Z,98
2022-09-16T02:11:26.961Z,99
2022-09-16T02:12:36.131Z,99
2022-09-16T02:13:45.322Z,99
2022-09-16T02:14:54.478Z,97.5
2022-09-16T02:16:03.643Z,98
2022-09-16T02:17:12.830Z,98
2022-09-16T02:18:21.999Z,98
2022-09-16T02:19:31.175Z,99
2022-09-16T02:20:40.345Z,98
2022-09-16T02:21:48.524Z,98
2022-09-16T02:22:57.702Z,99
2022-09-16T02:24:06.877Z,97.5
2022-09-16T02:25:16.047Z,98
2022-09-16T02:26:25.227Z,97
2022-09-16T02:27:34.393Z,98.5
2022-09-16T02:28:43.572Z,97.5
2022-09-16T02:29:52.741Z,97.5
2022-09-16T02:31:01.909Z,97
2022-09-16T02:32:11.081Z,97
2022-09-16T02:33:20.272Z,98
2022-09-16T02:34:29.447Z,96.5
2022-09-16T02:35:38.605Z,96.5
2022-09-16T02:36:46.791Z,96
2022-09-16T02:37:55.957Z,96.5
2022-09-16T02:39:05.134Z,96.5
2022-09-16T02:40:14.322Z,99.5
2022-09-16T02:41:23.497Z,97
2022-09-16T02:42:32.656Z,97.5
2022-09-16T02:43:41.840Z,98
2022-09-16T02:44:51.005Z,96.5
2022-09-16T02:46:00.199Z,97.5
2022-09-16T02:47:09.348Z,97
2022-09-16T02:48:18.521Z,97
2022-09-16T02:49:27.691Z,97.5
2022-09-16T02:50:36.867Z,96.5
2022-09-16T02:51:45.051Z,97
2022-09-16T02:52:54.227Z,98
2022-09-16T02:54:03.404Z,97.5
2022-09-16T02:55:12.581Z,98
2022-09-16T02:56:21.749Z,99
2022-09-16T02:57:30.921Z,98
2022-09-16T02:58:40.097Z,98
2022-09-16T02:59:49.277Z,98.5
2022-09-16T03:00:58.484Z,97.5
2022-09-16T03:02:07.618Z,99
2022-09-16T03:03:16.797Z,97.5
2022-09-16T03:04:25.970Z,98.5
2022-09-16T03:05:35.127Z,98.5
2022-09-16T03:06:43.325Z,98
2022-09-16T03:07:52.502Z,98
2022-09-16T03:09:01.652Z,98
2022-09-16T03:10:10.834Z,98
2022-09-16T03:11:20.020Z,98.5
2022-09-16T03:12:29.191Z,97.5
2022-09-16T03:13:38.361Z,98
2022-09-16T03:14:47.530Z,98.5
2022-09-16T03:15:56.722Z,97.5
2022-09-16T03:17:05.883Z,98
2022-09-16T03:18:15.049Z,97.5
2022-09-16T03:19:24.223Z,97.5
2022-09-16T03:20:33.395Z,98
2022-09-16T03:21:41.696Z,98.5
2022-09-16T03:22:50.910Z,98.5
2022-09-16T03:24:00.024Z,98.5
2022-09-16T03:25:09.100Z,99
2022-09-16T03:26:18.283Z,98
2022-09-16T03:27:27.507Z,98
2022-09-16T03:28:36.626Z,98
2022-09-16T03:29:45.941Z,98
2022-09-16T03:30:54.974Z,98.5
2022-09-16T03:32:04.148Z,98.5
2022-09-16T03:33:13.319Z,98.5
2022-09-16T03:34:22.499Z,98
2022-09-16T03:35:31.660Z,98
2022-09-16T03:36:39.905Z,98.5
2022-09-16T03:37:49.033Z,97.5
2022-09-16T03:38:58.201Z,99
2022-09-16T03:40:07.354Z,99.5
2022-09-16T03:41:16.530Z,97.5
2022-09-16T03:42:25.715Z,98.5
2022-09-16T03:43:34.944Z,99
2022-09-16T03:44:44.059Z,98.5
2022-09-16T03:45:53.321Z,98
2022-09-16T03:47:02.458Z,97.5
2022-09-16T03:48:11.566Z,98
2022-09-16T03:49:20.751Z,99
2022-09-16T03:50:29.923Z,99.5
2022-09-16T03:51:38.105Z,99
2022-09-16T03:52:47.274Z,99.5
2022-09-16T03:53:56.510Z,99
2022-09-16T03:55:05.636Z,99.5
2022-09-16T03:56:14.803Z,99.5
2022-09-16T03:57:23.970Z,99.5
2022-09-16T03:58:33.142Z,98.5
2022-09-16T03:59:42.396Z,99
2022-09-16T04:00:51.552Z,98.5
2022-09-16T04:02:00.665Z,99.5
2022-09-16T04:03:09.835Z,99.5
2022-09-16T04:04:19.108Z,99.5
2022-09-16T04:05:28.180Z,99
2022-09-16T04:06:36.373Z,99.5
2022-09-16T04:07:45.636Z,99.5
2022-09-16T04:08:54.754Z,99
2022-09-16T04:10:03.926Z,99
2022-09-16T04:11:13.088Z,99.5
2022-09-16T04:12:22.311Z,99.5
2022-09-16T04:13:31.415Z,99
2022-09-16T04:14:40.583Z,99.5
2022-09-16T04:15:49.801Z,99.5
2022-09-16T04:16:58.918Z,99.5
2022-09-16T04:18:08.092Z,99
2022-09-16T04:19:17.299Z,98.5
2022-09-16T04:21:35.611Z,99
2022-09-16T04:22:43.806Z,99
2022-09-16T04:23:52.977Z,99.5
2022-09-16T04:25:02.148Z,98.5
2022-09-16T04:26:11.314Z,98.5
2022-09-16T04:27:20.487Z,99
2022-09-16T04:28:29.669Z,99
2022-09-16T04:29:38.842Z,98.5
2022-09-16T04:30:48.016Z,99.5
2022-09-16T04:31:57.203Z,99.5
2022-09-16T04:33:06.351Z,99.5
2022-09-16T04:34:15.553Z,99.5
2022-09-16T04:35:24.710Z,98
2022-09-16T04:36:33.872Z,98.5
2022-09-16T04:37:42.071Z,98
2022-09-16T04:38:51.235Z,99.5
2022-09-16T04:40:00.406Z,98.5
2022-09-16T04:41:09.599Z,99.5
2022-09-16T04:42:18.757Z,99
2022-09-16T04:43:27.929Z,98.5
2022-09-16T04:44:37.102Z,98
2022-09-16T04:45:46.273Z,98
2022-09-16T04:46:55.452Z,98.5
2022-09-16T04:48:04.623Z,99.5
2022-09-16T04:49:13.794Z,99.5
2022-09-16T04:50:22.971Z,98.5
2022-09-16T04:51:32.135Z,99
2022-09-16T04:52:40.333Z,98.5
2022-09-16T04:53:49.511Z,97.5
2022-09-16T04:54:58.672Z,98
2022-09-16T04:56:07.854Z,97
2022-09-16T04:57:16.041Z,98
2022-09-16T04:58:24.243Z,98.5
2022-09-16T04:59:33.410Z,98.5
2022-09-16T05:00:42.577Z,99.5
2022-09-16T05:01:51.743Z,98
2022-09-16T05:04:10.093Z,97.5
2022-09-16T05:05:18.290Z,97
2022-09-16T05:06:26.472Z,98.5
2022-09-16T05:07:35.655Z,99
2022-09-16T05:08:44.823Z,98
2022-09-16T05:09:54.003Z,97
2022-09-16T05:11:03.178Z,97
2022-09-16T05:12:12.346Z,98
2022-09-16T05:13:21.521Z,98.5
2022-09-16T05:14:30.694Z,97.5
2022-09-16T05:15:39.858Z,97.5
2022-09-16T05:16:49.034Z,97.5
2022-09-16T05:17:58.199Z,98
2022-09-16T05:19:07.371Z,97.5
2022-09-16T05:20:16.580Z,96.5
2022-09-16T05:21:24.737Z,97
2022-09-16T05:22:33.927Z,96.5
2022-09-16T05:23:43.136Z,97
2022-09-16T05:24:52.262Z,98.5
2022-09-16T05:26:01.435Z,96
2022-09-16T05:27:10.597Z,96
2022-09-16T05:28:19.787Z,96.5
2022-09-16T05:29:28.953Z,96.5
2022-09-16T05:30:38.133Z,97
2022-09-16T05:31:47.301Z,96.5
2022-09-16T05:32:55.518Z,97.5
2022-09-16T05:34:03.676Z,98
2022-09-16T05:35:12.844Z,95.5
2022-09-16T05:36:22.028Z,96
2022-09-16T05:37:31.197Z,96
2022-09-16T05:38:40.366Z,97
2022-09-16T05:39:49.551Z,99.5
2022-09-16T05:40:58.722Z,95
2022-09-16T05:42:07.892Z,96
2022-09-16T05:43:16.075Z,97.5
2022-09-16T05:44:24.274Z,96.5
2022-09-16T05:45:33.441Z,95.5
2022-09-16T05:46:42.607Z,95
2022-09-16T05:47:51.794Z,95
2022-09-16T05:49:00.992Z,95
2022-09-16T05:50:10.134Z,97
2022-09-16T05:51:19.310Z,94.5
2022-09-16T05:52:28.482Z,93.5
2022-09-16T05:53:37.676Z,95
2022-09-16T05:54:46.823Z,94
2022-09-16T05:55:56.003Z,96
2022-09-16T05:57:05.175Z,97
2022-09-16T05:58:13.378Z,95.5
2022-09-16T05:59:22.535Z,93
2022-09-16T06:00:31.712Z,93.5
2022-09-16T06:01:40.890Z,92.5
2022-09-16T06:02:50.062Z,93
2022-09-16T06:03:59.242Z,93.5
2022-09-16T06:05:08.412Z,93
2022-09-16T06:06:17.586Z,90.5
2022-09-16T06:07:25.765Z,90.5
2022-09-16T06:08:33.970Z,90.5
2022-09-16T06:09:43.132Z,90.5
2022-09-16T06:10:52.309Z,91
2022-09-16T06:12:01.485Z,91.5
2022-09-16T06:13:10.665Z,93
2022-09-16T06:14:19.821Z,91
2022-09-16T06:15:29.001Z,90
2022-09-16T06:16:38.173Z,90
2022-09-16T06:17:47.347Z,90.5
2022-09-16T06:18:56.515Z,90
2022-09-16T06:20:05.681Z,90
2022-09-16T06:21:14.864Z,91.5
2022-09-16T06:22:24.033Z,90.5
2022-09-16T06:23:33.206Z,90
2022-09-16T06:24:41.394Z,89
2022-09-16T06:25:50.559Z,89.5
2022-09-16T06:26:59.733Z,88.5
2022-09-16T06:28:07.930Z,87
2022-09-16T06:29:16.114Z,88.5
2022-09-16T06:30:25.293Z,89.5
2022-09-16T06:31:34.463Z,89.5
2022-09-16T06:32:43.632Z,89.5
2022-09-16T06:33:52.815Z,90
2022-09-16T06:35:01.988Z,91
2022-09-16T06:36:11.151Z,91.5
2022-09-16T06:37:20.357Z,91
2022-09-16T06:38:29.498Z,91
2022-09-16T06:39:38.669Z,91
2022-09-16T06:40:47.842Z,92
2022-09-16T06:41:57.009Z,92
2022-09-16T06:43:06.202Z,92
2022-09-16T06:44:14.379Z,91.5
2022-09-16T06:45:23.554Z,92.5
2022-09-16T06:46:32.717Z,92
2022-09-16T06:47:41.907Z,92
2022-09-16T06:50:00.240Z,92
2022-09-16T06:51:09.399Z,91.5
2022-09-16T06:52:18.577Z,90.5
2022-09-16T06:53:26.776Z,91.5
2022-09-16T06:54:34.968Z,91.5
2022-09-16T06:55:44.142Z,90.5
2022-09-16T06:56:53.307Z,91
2022-09-16T06:58:02.476Z,90.5
2022-09-16T06:59:11.654Z,92.5
2022-09-16T07:00:20.829Z,91
2022-09-16T07:01:30.002Z,92
2022-09-16T07:02:39.177Z,90.5
2022-09-16T07:03:48.399Z,91.5
2022-09-16T07:04:57.516Z,91
2022-09-16T07:06:05.714Z,88
2022-09-16T07:07:13.896Z,86
2022-09-16T07:08:23.068Z,84
2022-09-16T07:09:32.307Z,81.5
2022-09-16T07:10:41.425Z,79.5
2022-09-16T07:11:50.586Z,77
2022-09-16T07:12:59.784Z,79
2022-09-16T07:14:08.931Z,76.5
2022-09-16T07:15:18.181Z,81
2022-09-16T07:16:27.294Z,81.5
2022-09-16T07:17:36.464Z,80
2022-09-16T07:18:45.636Z,80.5
2022-09-16T07:19:54.903Z,80.5
2022-09-16T07:21:04.121Z,77
2022-09-16T07:22:12.249Z,79.5
2022-09-16T07:23:21.318Z,76
2022-09-16T07:24:30.566Z,77
2022-09-16T07:25:39.681Z,76
2022-09-16T07:26:48.916Z,75.5
2022-09-16T07:27:58.178Z,79
2022-09-16T07:29:07.257Z,79
2022-09-16T07:30:16.397Z,78.5
2022-09-16T07:31:25.705Z,79
2022-09-16T07:32:34.843Z,77
2022-09-16T07:33:43.876Z,77
2022-09-16T07:34:53.138Z,75
2022-09-16T07:36:02.278Z,77.5
2022-09-16T07:37:10.464Z,75.5
2022-09-16T07:38:19.617Z,76
2022-09-16T07:39:28.819Z,75.5
2022-09-16T07:40:37.928Z,74.5
2022-09-16T07:41:47.111Z,75
2022-09-16T07:42:56.380Z,73
2022-09-16T07:44:05.540Z,75
2022-09-16T07:45:14.636Z,75.5
2022-09-16T07:46:23.850Z,74.5
2022-09-16T07:47:33.003Z,74.5
2022-09-16T07:48:42.201Z,69.5
2022-09-16T07:49:51.312Z,72
2022-09-16T07:52:09.680Z,74
2022-09-16T07:53:18.831Z,74
2022-09-16T07:54:27.104Z,73.5
2022-09-16T07:55:36.216Z,72.5
2022-09-16T07:56:45.368Z,70
2022-09-16T07:59:03.708Z,72
2022-09-16T08:00:12.882Z,71.5
2022-09-16T08:01:22.180Z,73
2022-09-16T08:02:31.389Z,73.5
2022-09-16T08:03:40.591Z,71
2022-09-16T08:04:49.648Z,71.5
2022-09-16T08:05:58.736Z,70
2022-09-16T08:07:08.019Z,71.5
2022-09-16T08:08:17.202Z,68.5
2022-09-16T08:09:25.420Z,69.5
2022-09-16T08:10:34.439Z,70
2022-09-16T08:11:43.622Z,69.5
2022-09-16T08:12:52.787Z,70.5
2022-09-16T08:14:02.100Z,72.5
2022-09-16T08:15:11.252Z,73
2022-09-16T08:16:20.360Z,71.5
2022-09-16T08:17:29.559Z,70
2022-09-16T08:18:38.649Z,68.5
2022-09-16T08:19:47.906Z,70
2022-09-16T08:20:57.105Z,72
2022-09-16T08:22:06.291Z,69
2022-09-16T08:23:15.337Z,70
2022-09-16T08:24:23.623Z,70.5
2022-09-16T08:25:32.787Z,67.5
2022-09-16T08:26:42.018Z,68
2022-09-16T08:27:51.079Z,69
2022-09-16T08:29:00.306Z,68
2022-09-16T08:30:09.481Z,66
2022-09-16T08:31:18.555Z,65.5
2022-09-16T08:32:27.755Z,64.5
2022-09-16T08:33:36.953Z,63
2022-09-16T08:34:46.096Z,63
2022-09-16T08:35:55.258Z,67
2022-09-16T08:37:04.521Z,68.5
2022-09-16T08:38:13.594Z,66
2022-09-16T08:40:30.977Z,65
2022-09-16T08:41:40.165Z,64.5
2022-09-16T08:42:49.393Z,63.5
2022-09-16T08:43:58.579Z,64.5
2022-09-16T08:45:07.668Z,60
2022-09-16T08:46:16.908Z,61.5
2022-09-16T08:47:25.989Z,62.5
2022-09-16T08:48:35.296Z,59
2022-09-16T08:49:44.397Z,60.5
2022-09-16T08:50:53.569Z,60.5
2022-09-16T08:52:02.717Z,60.5
2022-09-16T08:53:11.875Z,58.5
2022-09-16T08:54:21.027Z,58.5
2022-09-16T08:55:29.240Z,58.5
2022-09-16T08:56:38.441Z,56.5
2022-09-16T08:57:47.559Z,57
2022-09-16T08:58:56.753Z,55.5
2022-09-16T09:00:05.989Z,61
2022-09-16T09:01:15.201Z,61.5
2022-09-16T09:02:24.371Z,61
2022-09-16T09:03:33.423Z,61
2022-09-16T09:04:42.599Z,61
2022-09-16T09:05:51.809Z,59
2022-09-16T09:07:00.976Z,57.5
2022-09-16T09:08:10.108Z,58
2022-09-16T09:09:19.282Z,58
2022-09-16T09:10:27.498Z,58
2022-09-16T09:11:36.768Z,58
2022-09-16T09:12:45.854Z,60
2022-09-16T09:13:55.004Z,58
2022-09-16T09:15:04.221Z,59.5
2022-09-16T09:16:13.417Z,57.5
2022-09-16T09:17:21.537Z,57
2022-09-16T09:18:29.701Z,56.5
2022-09-16T09:19:38.961Z,55.5
2022-09-16T09:20:48.057Z,57.5
2022-09-16T09:21:57.225Z,57
2022-09-16T09:23:06.437Z,58
2022-09-16T09:24:15.583Z,60.5
2022-09-16T09:25:23.799Z,59
2022-09-16T09:26:32.975Z,56
2022-09-16T09:27:42.138Z,54.5
2022-09-16T09:28:51.287Z,55
2022-09-16T09:29:59.482Z,56.5
2022-09-16T09:31:08.665Z,56.5
2022-09-16T09:32:17.842Z,60
2022-09-16T09:33:27.019Z,57.5
2022-09-16T09:34:36.163Z,58
2022-09-16T09:35:45.372Z,60
2022-09-16T09:36:54.640Z,57.5
2022-09-16T09:38:03.701Z,58.5
2022-09-16T09:39:12.887Z,55.5
2022-09-16T09:40:22.066Z,58
2022-09-16T09:41:31.200Z,57.5
2022-09-16T09:42:40.427Z,55
2022-09-16T09:43:49.565Z,56.5
2022-09-16T09:44:57.820Z,58
2022-09-16T09:46:06.895Z,59
2022-09-16T09:47:16.077Z,58.5
2022-09-16T09:48:25.262Z,58.5
2022-09-16T09:49:34.512Z,57
2022-09-16T09:50:42.624Z,55.5
2022-09-16T09:51:51.791Z,57.5
2022-09-16T09:53:00.974Z,58
2022-09-16T09:54:10.131Z,60.5
2022-09-16T09:55:19.299Z,60.5
2022-09-16T09:56:28.495Z,61.5
2022-09-16T09:57:37.657Z,60.5
2022-09-16T09:58:46.818Z,59
2022-09-16T09:59:56.034Z,56
2022-09-16T10:01:05.173Z,56
2022-09-16T10:02:14.332Z,56.5
2022-09-16T10:03:23.521Z,55.5
2022-09-16T10:04:32.741Z,57.5
2022-09-16T10:05:40.865Z,54.5
2022-09-16T10:06:50.052Z,57
2022-09-16T10:07:59.211Z,53
2022-09-16T10:10:17.586Z,54.5
2022-09-16T10:11:26.738Z,57
2022-09-16T10:12:36.017Z,55
2022-09-16T10:13:45.076Z,55.5
2022-09-16T10:16:03.446Z,52
2022-09-16T10:17:12.663Z,54
2022-09-16T10:18:21.824Z,53.5
2022-09-16T10:19:30.938Z,52.5
2022-09-16T10:20:39.170Z,52
2022-09-16T10:21:48.341Z,53.5
2022-09-16T10:22:56.509Z,55
2022-09-16T10:24:04.693Z,56
2022-09-16T10:25:13.886Z,56.5
2022-09-16T10:26:23.138Z,55
2022-09-16T10:27:31.245Z,54
2022-09-16T10:28:39.449Z,53
2022-09-16T10:29:48.596Z,52.5
2022-09-16T10:30:57.766Z,53.5
2022-09-16T10:32:06.934Z,52
2022-09-16T10:33:16.123Z,52.5
2022-09-16T10:34:25.294Z,52.5
2022-09-16T10:35:34.494Z,51.5
2022-09-16T10:36:43.630Z,54.5
2022-09-16T10:37:52.797Z,53
2022-09-16T10:39:01.972Z,54
2022-09-16T10:40:11.157Z,51.5
2022-09-16T10:41:20.314Z,54.5
2022-09-16T10:42:29.484Z,53.5
2022-09-16T10:43:37.673Z,53.5
2022-09-16T10:44:46.830Z,53
2022-09-16T10:45:56.011Z,53
2022-09-16T10:47:05.256Z,53
2022-09-16T10:48:14.358Z,53.5
2022-09-16T10:49:23.526Z,53
2022-09-16T10:50:32.710Z,52.5
2022-09-16T10:51:41.872Z,51.5
2022-09-16T10:52:51.060Z,54
2022-09-16T10:54:00.244Z,55
2022-09-16T10:55:09.437Z,52
2022-09-16T10:56:18.592Z,55
2022-09-16T10:57:27.767Z,57.5
2022-09-16T10:58:35.968Z,56.5
2022-09-16T10:59:45.094Z,57
2022-09-16T11:00:54.294Z,55.5
2022-09-16T11:02:03.473Z,54
2022-09-16T11:03:12.652Z,49.5
2022-09-16T11:04:21.785Z,49.5
2022-09-16T11:05:30.963Z,51.5
2022-09-16T11:06:40.142Z,47.5
2022-09-16T11:07:49.301Z,49.5
2022-09-16T11:08:58.469Z,48
2022-09-16T11:10:07.652Z,49
2022-09-16T11:11:16.823Z,50
2022-09-16T11:12:25.990Z,47.5
2022-09-16T11:14:44.353Z,48.5
2022-09-16T11:15:52.526Z,47
2022-09-16T11:17:01.731Z,45.5
2022-09-16T11:18:10.863Z,45.5
2022-09-16T11:19:20.079Z,47
2022-09-16T11:20:29.309Z,50.5
2022-09-16T11:21:38.488Z,47.5
2022-09-16T11:22:47.563Z,47
2022-09-16T11:23:56.733Z,47
2022-09-16T11:25:05.913Z,47.5
2022-09-16T11:26:15.078Z,48
2022-09-16T11:27:24.243Z,47
2022-09-16T11:28:33.426Z,45
2022-09-16T11:29:42.620Z,48
2022-09-16T11:30:50.795Z,48
2022-09-16T11:31:59.961Z,46.5
2022-09-16T11:33:09.120Z,47
2022-09-16T11:34:18.299Z,48.5
2022-09-16T11:35:27.480Z,47.5
2022-09-16T11:36:36.652Z,49.5
2022-09-16T11:37:45.836Z,48.5
2022-09-16T11:38:55.012Z,49.5
2022-09-16T11:40:04.166Z,48
2022-09-16T11:41:13.329Z,47
2022-09-16T11:42:22.528Z,48
2022-09-16T11:44:40.946Z,46
2022-09-16T11:45:49.037Z,47.5
2022-09-16T11:46:58.249Z,47.5
2022-09-16T11:48:07.488Z,50.5
2022-09-16T11:49:16.621Z,50
2022-09-16T11:50:25.771Z,48
2022-09-16T11:51:34.951Z,51
2022-09-16T11:52:43.218Z,47
2022-09-16T11:53:51.371Z,47
2022-09-16T11:55:00.478Z,48
2022-09-16T11:56:09.654Z,48.5
2022-09-16T11:57:18.808Z,51
2022-09-16T11:58:28.050Z,50.5
2022-09-16T11:59:37.177Z,49
2022-09-16T12:00:46.319Z,48
2022-09-16T12:01:55.495Z,49
2022-09-16T12:03:04.671Z,47
2022-09-16T12:04:13.850Z,47
2022-09-16T12:05:23.030Z,47.5
2022-09-16T12:06:32.189Z,49
2022-09-16T12:07:41.362Z,49.5
2022-09-16T12:08:49.544Z,48
2022-09-16T12:09:58.728Z,49.5
2022-09-16T12:11:06.980Z,50
2022-09-16T12:12:15.105Z,49.5
2022-09-16T12:13:24.275Z,51
2022-09-16T12:14:33.493Z,51.5
2022-09-16T12:15:42.615Z,50
2022-09-16T12:16:51.792Z,49.5
2022-09-16T12:18:01.022Z,48.5
2022-09-16T12:19:10.242Z,48
2022-09-16T12:20:19.301Z,50.5
2022-09-16T12:21:28.482Z,46
2022-09-16T12:22:37.656Z,47
2022-09-16T12:23:46.831Z,46.5
2022-09-16T12:24:55.998Z,48.5
2022-09-16T12:26:05.176Z,47
2022-09-16T12:27:13.354Z,47.5
2022-09-16T12:28:22.521Z,48
2022-09-16T12:29:31.692Z,47
2022-09-16T12:30:40.932Z,46.5
2022-09-16T12:31:50.051Z,44.5
2022-09-16T12:32:59.224Z,46
2022-09-16T12:34:08.390Z,45
2022-09-16T12:35:17.576Z,43
2022-09-16T12:36:26.728Z,45.5
2022-09-16T12:37:35.931Z,48
2022-09-16T12:38:45.076Z,46
2022-09-16T12:39:54.251Z,44.5
2022-09-16T12:41:03.442Z,45
2022-09-16T12:43:20.793Z,44.5
2022-09-16T12:44:29.969Z,44
2022-09-16T12:45:38.163Z,46
2022-09-16T12:46:46.355Z,44
2022-09-16T12:47:55.519Z,46
2022-09-16T12:49:04.760Z,43.5
2022-09-16T12:50:13.881Z,46
2022-09-16T12:51:22.064Z,46
2022-09-16T12:52:30.280Z,49
2022-09-16T12:53:39.415Z,51
2022-09-16T12:54:48.600Z,52.5
2022-09-16T12:55:57.760Z,52
2022-09-16T12:57:06.957Z,52
2022-09-16T12:58:16.150Z,53.5
2022-09-16T12:59:25.292Z,52.5
2022-09-16T13:00:34.494Z,53.5
2022-09-16T13:01:43.643Z,53.5
2022-09-16T13:02:52.862Z,51
2022-09-16T13:04:01.990Z,51.5
2022-09-16T13:05:11.192Z,49.5
2022-09-16T13:06:20.373Z,48.5
2022-09-16T13:07:28.511Z,49
2022-09-16T13:08:37.702Z,52
2022-09-16T13:09:46.847Z,52
2022-09-16T13:10:56.023Z,51.5
2022-09-16T13:12:05.194Z,52.5
2022-09-16T13:13:14.361Z,51
2022-09-16T13:15:32.708Z,53.5
2022-09-16T13:16:41.896Z,50.5
2022-09-16T13:17:51.073Z,51
2022-09-16T13:19:00.230Z,51.5
2022-09-16T13:20:09.406Z,51
2022-09-16T13:21:18.574Z,53
2022-09-16T13:22:26.821Z,51.5
2022-09-16T13:23:35.945Z,51.5
2022-09-16T13:24:45.108Z,51.5
2022-09-16T13:25:54.281Z,50
2022-09-16T13:27:03.455Z,50
2022-09-16T13:28:11.647Z,49
2022-09-16T13:29:19.840Z,50
2022-09-16T13:30:29.009Z,49
2022-09-16T13:31:38.181Z,49
2022-09-16T13:32:47.356Z,49
2022-09-16T13:33:55.560Z,49
2022-09-16T13:35:03.734Z,49.5
2022-09-16T13:36:12.924Z,49.5
2022-09-16T13:37:22.082Z,48.5
2022-09-16T13:38:31.251Z,47.5
2022-09-16T13:39:40.426Z,48
2022-09-16T13:40:49.598Z,48
2022-09-16T13:41:57.783Z,48.5
2022-09-16T13:43:06.957Z,48
2022-09-16T13:44:16.130Z,50.5
2022-09-16T13:45:25.311Z,50
2022-09-16T13:46:34.486Z,48.5
2022-09-16T13:47:43.683Z,49
2022-09-16T13:48:52.818Z,48
2022-09-16T13:50:01.998Z,49.5
2022-09-16T13:51:11.176Z,49.5
2022-09-16T13:52:20.343Z,52
2022-09-16T13:53:29.511Z,49
2022-09-16T13:54:38.692Z,50
2022-09-16T13:55:47.875Z,50.5
2022-09-16T13:56:56.061Z,51.5
2022-09-16T13:58:04.240Z,48.5
2022-09-16T13:59:12.424Z,49
2022-09-16T14:00:21.613Z,49
2022-09-16T14:01:29.847Z,52.5
2022-09-16T14:02:39.007Z,49
2022-09-16T14:03:47.178Z,50.5
2022-09-16T14:04:56.340Z,51.5
2022-09-16T14:06:05.505Z,50.5
2022-09-16T14:07:14.706Z,51
2022-09-16T14:08:23.853Z,51
2022-09-16T14:10:42.233Z,48.5
2022-09-16T14:11:51.395Z,50.5
2022-09-16T14:13:00.672Z,52
2022-09-16T14:14:09.861Z,54
2022-09-16T14:15:19.028Z,53.5
2022-09-16T14:16:28.057Z,56
2022-09-16T14:18:46.403Z,54.5
2022-09-16T14:19:54.737Z,52.5
2022-09-16T14:21:02.796Z,53
2022-09-16T14:22:12.089Z,55
2022-09-16T14:23:21.130Z,52.5
2022-09-16T14:24:30.291Z,52
2022-09-16T14:25:39.483Z,53.5
2022-09-16T14:26:48.640Z,51
2022-09-16T14:27:57.956Z,50.5
2022-09-16T14:29:07.080Z,52
2022-09-16T14:30:16.253Z,50
2022-09-16T14:31:25.477Z,50.5
2022-09-16T14:32:33.622Z,48.5
2022-09-16T14:33:41.718Z,49
2022-09-16T14:34:50.885Z,49
2022-09-16T14:36:00.170Z,49.5
2022-09-16T14:37:09.268Z,49
2022-09-16T14:38:18.542Z,49.5
2022-09-16T14:39:27.697Z,49.5
2022-09-16T14:40:36.893Z,49.5
2022-09-16T14:41:46.052Z,49.5
2022-09-16T14:42:55.082Z,48.5
2022-09-16T14:44:04.422Z,48.5
2022-09-16T14:45:13.564Z,52.5
2022-09-16T14:46:22.693Z,49.5
2022-09-16T14:47:31.776Z,50.5
2022-09-16T14:48:40.157Z,53
2022-09-16T14:49:49.244Z,49.5
2022-09-16T14:50:58.490Z,49
2022-09-16T14:52:07.520Z,49.5
2022-09-16T14:53:16.771Z,49
2022-09-16T14:54:25.834Z,50.5
2022-09-16T14:55:35.144Z,47
2022-09-16T14:56:43.338Z,46.5
2022-09-16T14:57:51.529Z,46.5
2022-09-16T14:59:00.553Z,46.5
2022-09-16T15:00:09.876Z,48
2022-09-16T15:01:18.913Z,48
2022-09-16T15:02:28.222Z,48
2022-09-16T15:03:36.422Z,48.5
2022-09-16T15:04:44.599Z,49
2022-09-16T15:05:53.788Z,47
2022-09-16T15:07:02.939Z,49.5
2022-09-16T15:08:12.142Z,49.5
2022-09-16T15:09:21.245Z,50.5
2022-09-16T15:10:30.317Z,52
2022-09-16T15:11:39.641Z,51.5
2022-09-16T15:12:48.870Z,53.5
2022-09-16T15:13:57.986Z,55
2022-09-16T15:15:07.014Z,57.5
2022-09-16T15:16:16.176Z,59
2022-09-16T15:17:25.509Z,61.5
2022-09-16T15:18:34.718Z,65
2022-09-16T15:19:43.857Z,66
2022-09-16T15:20:53.010Z,71.5
2022-09-16T15:22:01.145Z,68
2022-09-16T15:23:10.243Z,72
2022-09-16T15:24:19.406Z,72
2022-09-16T15:25:28.780Z,65.5
2022-09-16T15:26:37.758Z,62.5
2022-09-16T15:27:46.097Z,63
2022-09-16T15:28:54.348Z,61.5
2022-09-16T15:30:02.380Z,69.5
2022-09-16T15:31:10.651Z,71.5
2022-09-16T15:32:19.839Z,69
2022-09-16T15:33:28.860Z,67
2022-09-16T15:34:38.179Z,66.5
2022-09-16T15:35:47.374Z,64.5
2022-09-16T15:36:56.531Z,67.5
2022-09-16T15:38:05.646Z,67
2022-09-16T15:39:14.994Z,66
2022-09-16T15:41:33.331Z,71
2022-09-16T15:42:42.386Z,64.5
2022-09-16T15:43:51.717Z,61.5
2022-09-16T15:45:00.577Z,62
2022-09-16T15:46:08.889Z,59.5
2022-09-16T15:47:18.112Z,57.5
2022-09-16T15:48:27.283Z,57
2022-09-16T15:49:36.435Z,54
2022-09-16T15:50:45.567Z,54.5
2022-09-16T15:51:54.637Z,57
2022-09-16T15:53:03.808Z,53.5
2022-09-16T15:54:12.144Z,54.5
2022-09-16T15:55:20.319Z,55.5
2022-09-16T15:56:29.512Z,57
2022-09-16T15:57:38.660Z,58
2022-09-16T15:58:46.850Z,60
2022-09-16T15:59:55.067Z,59
2022-09-16T16:01:04.224Z,59
2022-09-16T16:02:13.262Z,58
2022-09-16T16:03:22.427Z,57.5
2022-09-16T16:04:31.736Z,58
2022-09-16T16:05:40.953Z,57
2022-09-16T16:06:49.973Z,58
2022-09-16T16:07:59.279Z,60.5
2022-09-16T16:09:08.452Z,58.5
2022-09-16T16:10:17.673Z,58.5
2022-09-16T16:11:26.780Z,58
2022-09-16T16:12:35.974Z,58